createdAt,value
2023-04-13T00:01:21.569Z,99185.34
2023-04-13T00:03:52.039Z,99173.28
2023-04-13T00:06:21.534Z,99178.63
2023-04-13T00:08:51.846Z,99182.69
2023-04-13T00:11:21.845Z,99172.59
2023-04-13T00:13:49.745Z,99169.78
2023-04-13T00:16:18.073Z,99166.28
2023-04-13T00:18:47.455Z,99162.34
2023-04-13T00:21:17.767Z,99167.66
2023-04-13T00:23:46.052Z,99164.28
2023-04-13T00:26:15.273Z,99161.63
2023-04-13T00:28:45.548Z,99146.38
2023-04-13T00:31:16.066Z,99148.91
2023-04-13T00:33:45.921Z,99152.78
2023-04-13T00:36:14.927Z,99150.69
2023-04-13T00:38:44.794Z,99152.50
2023-04-13T00:41:15.011Z,99138.34
2023-04-13T00:43:44.940Z,99147.56
2023-04-13T00:46:15.395Z,99139.00
2023-04-13T00:48:46.037Z,99140.13
2023-04-13T00:51:15.207Z,99145.47
2023-04-13T00:53:44.126Z,99135.50
2023-04-13T00:56:14.372Z,99137.34
2023-04-13T00:58:44.222Z,99130.59
2023-04-13T01:01:13.235Z,99134.50
2023-04-13T01:03:41.943Z,99133.09
2023-04-13T01:06:11.851Z,99130.28
2023-04-13T01:08:41.918Z,99131.53
2023-04-13T01:11:09.432Z,99125.50
2023-04-13T01:13:37.243Z,99128.88
2023-04-13T01:16:06.790Z,99135.59
2023-04-13T01:18:37.566Z,99128.88
2023-04-13T01:21:09.316Z,99127.47
2023-04-13T01:23:38.149Z,99134.19
2023-04-13T01:26:07.678Z,99134.91
2023-04-13T01:28:36.368Z,99129.03
2023-04-13T01:31:06.043Z,99138.41
2023-04-13T01:33:33.855Z,99129.19
2023-04-13T01:36:04.764Z,99127.94
2023-04-13T01:38:33.220Z,99130.59
2023-04-13T01:41:02.182Z,99135.91
2023-04-13T01:43:33.377Z,99129.34
2023-04-13T01:46:07.135Z,99137.34
2023-04-13T01:48:45.164Z,99147.97
2023-04-13T01:51:32.899Z,99133.97
2023-04-13T01:54:05.173Z,99126.69
2023-04-13T01:56:36.877Z,99135.91
2023-04-13T01:59:06.908Z,99137.34
2023-04-13T02:01:38.222Z,99132.69
2023-04-13T02:04:08.683Z,99144.03
2023-04-13T02:06:41.470Z,99154.69
2023-04-13T02:09:11.883Z,99150.78
2023-04-13T02:11:41.665Z,99153.44
2023-04-13T02:14:11.607Z,99156.78
2023-04-13T02:16:39.929Z,99161.44
2023-04-13T02:19:10.215Z,99149.53
2023-04-13T02:21:40.002Z,99168.88
2023-04-13T02:24:09.858Z,99170.81
2023-04-13T02:26:39.649Z,99178.78
2023-04-13T02:29:07.492Z,99186.78
2023-04-13T02:31:35.947Z,99189.44
2023-04-13T02:34:05.129Z,99186.78
2023-04-13T02:36:34.668Z,99190.69
2023-04-13T02:39:07.948Z,99193.34
2023-04-13T02:41:36.327Z,99196.03
2023-04-13T02:44:06.179Z,99204.00
2023-04-13T02:46:45.572Z,99198.84
2023-04-13T02:49:18.542Z,99210.88
2023-04-13T02:52:12.528Z,99229.66
2023-04-13T02:54:55.309Z,99227.00
2023-04-13T02:57:29.476Z,99229.13
2023-04-13T03:00:01.150Z,99237.97
2023-04-13T03:02:41.222Z,99244.00
2023-04-13T03:05:11.494Z,99244.72
2023-04-13T03:07:41.222Z,99246.81
2023-04-13T03:10:09.854Z,99251.44
2023-04-13T03:12:39.304Z,99258.16
2023-04-13T03:15:10.677Z,99259.56
2023-04-13T03:17:40.280Z,99271.63
2023-04-13T03:20:12.515Z,99281.03
2023-04-13T03:22:49.801Z,99279.75
2023-04-13T03:25:19.883Z,99283.16
2023-04-13T03:27:49.863Z,99282.44
2023-04-13T03:30:22.248Z,99298.56
2023-04-13T03:32:56.812Z,99301.94
2023-04-13T03:35:29.771Z,99298.56
2023-04-13T03:38:02.693Z,99309.22
2023-04-13T03:40:39.113Z,99304.59
2023-04-13T03:43:09.045Z,99309.22
2023-04-13T03:45:44.187Z,99314.53
2023-04-13T03:48:16.578Z,99314.53
2023-04-13T03:50:46.969Z,99318.59
2023-04-13T03:53:20.552Z,99318.44
2023-04-13T03:55:53.900Z,99323.75
2023-04-13T03:58:23.747Z,99331.91
2023-04-13T04:00:54.251Z,99329.97
2023-04-13T04:03:36.691Z,99329.78
2023-04-13T04:06:09.221Z,99330.50
2023-04-13T04:08:42.152Z,99337.06
2023-04-13T04:11:24.486Z,99339.72
2023-04-13T04:13:53.151Z,99342.38
2023-04-13T04:16:21.964Z,99344.38
2023-04-13T04:18:58.592Z,99350.38
2023-04-13T04:21:28.239Z,99356.97
2023-04-13T04:23:56.240Z,99360.88
2023-04-13T04:26:24.301Z,99368.88
2023-04-13T04:28:58.565Z,99367.47
2023-04-13T04:31:28.509Z,99368.88
2023-04-13T04:33:58.556Z,99364.78
2023-04-13T04:36:28.375Z,99362.13
2023-04-13T04:38:59.779Z,99372.78
2023-04-13T04:41:28.003Z,99376.69
2023-04-13T04:44:02.394Z,99391.25
2023-04-13T04:46:38.380Z,99381.16
2023-04-13T04:49:10.925Z,99384.50
2023-04-13T04:51:40.778Z,99393.19
2023-04-13T04:54:13.953Z,99400.47
2023-04-13T04:56:43.844Z,99399.78
2023-04-13T04:59:13.475Z,99397.13
2023-04-13T05:01:54.558Z,99404.41
2023-04-13T05:04:24.868Z,99411.13
2023-04-13T05:06:54.904Z,99411.13
2023-04-13T05:09:26.193Z,99406.50
2023-04-13T05:11:57.675Z,99399.94
2023-04-13T05:14:27.686Z,99410.03
2023-04-13T05:16:57.594Z,99406.13
2023-04-13T05:19:35.460Z,99418.19
2023-04-13T05:22:19.218Z,99414.25
2023-04-13T05:24:53.002Z,99416.41
2023-04-13T05:27:24.409Z,99419.91
2023-04-13T05:29:56.202Z,99422.56
2023-04-13T05:32:27.339Z,99438.72
2023-04-13T05:35:00.149Z,99433.38
2023-04-13T05:37:28.788Z,99433.38
2023-04-13T05:39:57.705Z,99440.16
2023-04-13T05:42:33.872Z,99452.88
2023-04-13T05:45:02.835Z,99453.78
2023-04-13T05:47:31.388Z,99456.44
2023-04-13T05:50:08.480Z,99460.69
2023-04-13T05:52:38.366Z,99468.13
2023-04-13T05:55:08.799Z,99471.50
2023-04-13T05:57:39.616Z,99475.41
2023-04-13T06:00:12.396Z,99478.59
2023-04-13T06:02:41.327Z,99488.38
2023-04-13T06:05:14.573Z,99490.88
2023-04-13T06:07:44.564Z,99492.28
2023-04-13T06:10:13.058Z,99497.59
2023-04-13T06:12:41.636Z,99505.09
2023-04-13T06:15:09.464Z,99515.72
2023-04-13T06:17:39.628Z,99517.81
2023-04-13T06:20:09.357Z,99517.81
2023-04-13T06:22:37.798Z,99528.47
2023-04-13T06:25:06.687Z,99523.16
2023-04-13T06:27:38.020Z,99533.66
2023-04-13T06:30:05.989Z,99537.03
2023-04-13T06:32:36.306Z,99543.03
2023-04-13T06:35:05.861Z,99531.69
2023-04-13T06:37:42.281Z,99538.41
2023-04-13T06:40:15.931Z,99541.25
2023-04-13T06:42:54.025Z,99553.34
2023-04-13T06:45:46.310Z,99560.94
2023-04-13T06:48:21.404Z,99574.78
2023-04-13T06:50:56.255Z,99568.75
2023-04-13T06:53:27.273Z,99586.16
2023-04-13T06:55:57.847Z,99586.16
2023-04-13T06:58:27.722Z,99578.16
2023-04-13T07:00:57.232Z,99581.53
2023-04-13T07:03:29.061Z,99580.84
2023-04-13T07:05:58.942Z,99585.63
2023-04-13T07:08:27.926Z,99586.34
2023-04-13T07:10:57.588Z,99594.47
2023-04-13T07:13:34.283Z,99590.94
2023-04-13T07:16:05.411Z,99599.47
2023-04-13T07:18:36.863Z,99592.72
2023-04-13T07:21:05.119Z,99599.47
2023-04-13T07:23:46.731Z,99607.47
2023-04-13T07:26:15.576Z,99607.63
2023-04-13T07:28:45.574Z,99611.84
2023-04-13T07:31:14.993Z,99613.97
2023-04-13T07:33:46.972Z,99623.94
2023-04-13T07:36:21.555Z,99635.81
2023-04-13T07:38:54.854Z,99629.28
2023-04-13T07:41:24.880Z,99630.66
2023-04-13T07:43:59.326Z,99629.59
2023-04-13T07:46:28.307Z,99632.41
2023-04-13T07:48:58.508Z,99636.50
2023-04-13T07:51:32.444Z,99636.66
2023-04-13T07:54:02.372Z,99642.69
2023-04-13T07:56:34.705Z,99652.28
2023-04-13T07:59:06.469Z,99655.78
2023-04-13T08:01:36.998Z,99665.94
2023-04-13T08:04:08.302Z,99666.78
2023-04-13T08:06:39.225Z,99677.44
2023-04-13T08:09:07.468Z,99666.63
2023-04-13T08:11:36.396Z,99671.97
2023-04-13T08:14:08.314Z,99676.03
2023-04-13T08:16:38.180Z,99679.59
2023-04-13T08:19:10.505Z,99688.44
2023-04-13T08:21:46.312Z,99680.78
2023-04-13T08:24:15.830Z,99681.28
2023-04-13T08:26:44.347Z,99686.50
2023-04-13T08:29:12.794Z,99688.19
2023-04-13T08:31:42.271Z,99698.97
2023-04-13T08:34:12.512Z,99708.53
2023-04-13T08:36:42.406Z,99701.19
2023-04-13T08:39:14.799Z,99720.88
2023-04-13T08:41:44.811Z,99711.63
2023-04-13T08:44:16.446Z,99722.00
2023-04-13T08:46:47.178Z,99731.22
2023-04-13T08:49:21.848Z,99737.97
2023-04-13T08:52:14.519Z,99746.19
2023-04-13T08:54:47.772Z,99755.34
2023-04-13T08:57:22.916Z,99757.00
2023-04-13T08:59:52.939Z,99755.72
2023-04-13T09:02:23.493Z,99771.22
2023-04-13T09:04:57.983Z,99766.75
2023-04-13T09:07:29.082Z,99768.72
2023-04-13T09:10:03.543Z,99771.97
2023-04-13T09:12:33.411Z,99786.16
2023-04-13T09:15:03.102Z,99778.97
2023-04-13T09:17:33.951Z,99786.97
2023-04-13T09:20:02.282Z,99787.06
2023-04-13T09:22:32.573Z,99804.75
2023-04-13T09:25:02.940Z,99814.28
2023-04-13T09:27:33.517Z,99818.56
2023-04-13T09:30:02.957Z,99829.22
2023-04-13T09:32:32.515Z,99829.31
2023-04-13T09:35:02.852Z,99832.69
2023-04-13T09:37:32.843Z,99837.00
2023-04-13T09:40:01.091Z,99843.66
2023-04-13T09:42:30.564Z,99838.19
2023-04-13T09:45:00.634Z,99851.03
2023-04-13T09:47:28.901Z,99855.09
2023-04-13T09:49:58.280Z,99857.69
2023-04-13T09:52:28.509Z,99862.97
2023-04-13T09:54:58.400Z,99851.44
2023-04-13T09:57:27.325Z,99858.41
2023-04-13T09:59:56.360Z,99874.22
2023-04-13T10:02:25.169Z,99882.59
2023-04-13T10:04:55.606Z,99881.09
2023-04-13T10:07:26.105Z,99893.00
2023-04-13T10:09:55.424Z,99892.66
2023-04-13T10:12:25.687Z,99885.75
2023-04-13T10:14:56.046Z,99901.78
2023-04-13T10:17:26.368Z,99894.47
2023-04-13T10:19:56.645Z,99910.47
2023-04-13T10:22:26.530Z,99900.72
2023-04-13T10:24:56.512Z,99923.81
2023-04-13T10:27:26.349Z,99926.56
2023-04-13T10:29:56.178Z,99926.91
2023-04-13T10:32:25.589Z,99934.00
2023-04-13T10:34:56.148Z,99932.91
2023-04-13T10:37:26.105Z,99939.50
2023-04-13T10:39:55.463Z,99951.38
2023-04-13T10:42:25.356Z,99956.72
2023-04-13T10:44:54.706Z,99950.25
2023-04-13T10:47:26.700Z,99959.78
2023-04-13T10:49:57.324Z,99965.97
2023-04-13T10:52:27.111Z,99977.06
2023-04-13T10:54:56.490Z,99978.31
2023-04-13T10:57:26.891Z,99984.06
2023-04-13T10:59:59.174Z,99990.41
2023-04-13T11:02:30.159Z,99995.16
2023-04-13T11:05:00.705Z,99993.19
2023-04-13T11:07:31.057Z,99994.59
2023-04-13T11:10:03.940Z,100000.53
2023-04-13T11:12:34.906Z,100002.56
2023-04-13T11:15:04.774Z,100002.88
2023-04-13T11:17:34.404Z,100006.78
2023-04-13T11:20:03.843Z,100007.94
2023-04-13T11:22:33.765Z,100015.81
2023-04-13T11:25:03.064Z,100015.38
2023-04-13T11:27:33.422Z,100036.00
2023-04-13T11:30:03.368Z,100022.94
2023-04-13T11:32:32.750Z,100027.28
2023-04-13T11:35:03.002Z,100030.41
2023-04-13T11:37:33.301Z,100025.47
2023-04-13T11:40:03.341Z,100026.72
2023-04-13T11:42:35.964Z,100032.25
2023-04-13T11:45:06.375Z,100035.19
2023-04-13T11:47:36.757Z,100042.81
2023-04-13T11:50:06.762Z,100050.00
2023-04-13T11:52:36.140Z,100038.75
2023-04-13T11:55:19.042Z,100030.63
2023-04-13T11:57:50.408Z,100051.44
2023-04-13T12:00:23.244Z,100029.44
2023-04-13T12:03:01.702Z,100053.72
2023-04-13T12:05:32.828Z,100054.38
2023-04-13T12:08:03.001Z,100059.00
2023-04-13T12:10:40.114Z,100055.72
2023-04-13T12:16:08.496Z,100074.44
2023-04-13T12:18:43.663Z,100080.44
2023-04-13T12:23:43.633Z,100093.22
2023-04-13T12:26:49.853Z,100104.22
2023-04-13T12:29:01.742Z,100107.69
2023-04-13T12:31:31.721Z,100099.16
2023-04-13T12:34:01.205Z,100100.69
2023-04-13T12:36:31.468Z,100100.03
2023-04-13T12:39:00.587Z,100109.34
2023-04-13T12:41:31.010Z,100115.03
2023-04-13T12:44:01.477Z,100118.38
2023-04-13T12:46:31.140Z,100122.16
2023-04-13T12:49:00.959Z,100131.31
2023-04-13T12:51:31.537Z,100129.59
2023-04-13T12:54:01.525Z,100125.78
2023-04-13T12:56:32.392Z,100139.84
2023-04-13T12:59:03.111Z,100139.19
2023-04-13T13:01:33.182Z,100143.69
2023-04-13T13:04:01.501Z,100140.16
2023-04-13T13:06:30.929Z,100144.88
2023-04-13T13:09:00.929Z,100148.66
2023-04-13T13:11:29.979Z,100156.66
2023-04-13T13:13:58.966Z,100161.63
2023-04-13T13:16:27.696Z,100163.91
2023-04-13T13:18:58.182Z,100169.31
2023-04-13T13:21:28.517Z,100159.78
2023-04-13T13:23:57.930Z,100171.81
2023-04-13T13:26:35.399Z,100156.16
2023-04-13T13:29:14.679Z,100174.53
2023-04-13T13:31:44.068Z,100174.00
2023-04-13T13:34:14.414Z,100185.38
2023-04-13T13:36:44.575Z,100176.00
2023-04-13T13:39:12.995Z,100179.84
2023-04-13T13:41:41.812Z,100178.28
2023-04-13T13:44:10.940Z,100188.56
2023-04-13T13:46:39.869Z,100184.31
2023-04-13T13:49:10.336Z,100189.59
2023-04-13T13:51:58.074Z,100189.88
2023-04-13T13:54:31.890Z,100189.78
2023-04-13T13:57:02.367Z,100181.75
2023-04-13T13:59:31.911Z,100191.91
2023-04-13T14:02:02.349Z,100194.41
2023-04-13T14:04:32.869Z,100204.91
2023-04-13T14:07:03.318Z,100212.56
2023-04-13T14:09:33.212Z,100195.72
2023-04-13T14:12:02.970Z,100204.94
2023-04-13T14:14:32.560Z,100207.09
2023-04-13T14:17:02.023Z,100206.88
2023-04-13T14:19:32.408Z,100211.66
2023-04-13T14:22:02.400Z,100212.25
2023-04-13T14:24:31.180Z,100218.84
2023-04-13T14:27:00.707Z,100206.81
2023-04-13T14:29:30.696Z,100218.47
2023-04-13T14:32:01.040Z,100212.13
2023-04-13T14:34:31.384Z,100228.66
2023-04-13T14:37:01.002Z,100227.22
2023-04-13T14:39:29.724Z,100239.97
2023-04-13T14:42:00.103Z,100224.16
2023-04-13T14:44:30.444Z,100226.38
2023-04-13T14:47:00.323Z,100229.81
2023-04-13T14:49:29.259Z,100240.13
2023-04-13T14:52:00.020Z,100235.81
2023-04-13T14:54:30.433Z,100244.09
2023-04-13T14:57:00.777Z,100244.38
2023-04-13T14:59:31.087Z,100252.84
2023-04-13T15:02:01.288Z,100261.56
2023-04-13T15:04:30.173Z,100261.66
2023-04-13T15:07:00.355Z,100270.13
2023-04-13T15:09:28.868Z,100270.63
2023-04-13T15:11:58.240Z,100273.94
2023-04-13T15:14:28.646Z,100286.66
2023-04-13T15:16:59.207Z,100287.84
2023-04-13T15:19:29.737Z,100280.06
2023-04-13T15:22:00.575Z,100277.66
2023-04-13T15:24:30.155Z,100274.69
2023-04-13T15:27:01.067Z,100280.38
2023-04-13T15:29:31.483Z,100278.00
2023-04-13T15:32:02.126Z,100282.94
2023-04-13T15:34:31.665Z,100276.41
2023-04-13T15:37:02.031Z,100291.56
2023-04-13T15:39:32.328Z,100287.03
2023-04-13T15:42:02.192Z,100284.91
2023-04-13T15:44:31.133Z,100280.06
2023-04-13T15:47:02.417Z,100287.41
2023-04-13T15:49:32.425Z,100277.38
2023-04-13T15:52:02.722Z,100282.16
2023-04-13T15:54:32.580Z,100286.94
2023-04-13T15:57:01.612Z,100289.19
2023-04-13T15:59:31.105Z,100291.84
2023-04-13T16:02:00.904Z,100290.53
2023-04-13T16:04:29.211Z,100280.59
2023-04-13T16:07:11.886Z,100293.56
2023-04-13T16:09:42.158Z,100295.81
2023-04-13T16:12:12.549Z,100291.97
2023-04-13T16:14:42.942Z,100301.50
2023-04-13T16:17:13.230Z,100295.00
2023-04-13T16:19:42.447Z,100288.47
2023-04-13T16:22:11.133Z,100297.63
2023-04-13T16:24:41.414Z,100301.25
2023-04-13T16:27:11.904Z,100306.03
2023-04-13T16:29:42.211Z,100310.19
2023-04-13T16:32:11.628Z,100315.78
2023-04-13T16:34:40.663Z,100320.50
2023-04-13T16:37:09.414Z,100316.81
2023-04-13T16:39:39.726Z,100321.19
2023-04-13T16:42:10.041Z,100334.25
2023-04-13T16:44:39.984Z,100332.50
2023-04-13T16:47:14.296Z,100330.06
2023-04-13T16:49:43.268Z,100331.00
2023-04-13T16:52:12.736Z,100328.53
2023-04-13T16:54:45.913Z,100329.47
2023-04-13T16:57:14.711Z,100333.09
2023-04-13T16:59:44.197Z,100334.19
2023-04-13T17:02:30.168Z,100336.72
2023-04-13T17:05:00.326Z,100339.22
2023-04-13T17:07:30.634Z,100348.38
2023-04-13T17:10:00.965Z,100357.47
2023-04-13T17:12:30.884Z,100346.44
2023-04-13T17:15:01.222Z,100352.88
2023-04-13T17:17:31.513Z,100351.88
2023-04-13T17:20:01.931Z,100353.63
2023-04-13T17:22:32.284Z,100358.84
2023-04-13T17:25:02.282Z,100368.69
2023-04-13T17:27:31.023Z,100363.72
2023-04-13T17:30:01.832Z,100372.09
2023-04-13T17:32:31.654Z,100371.22
2023-04-13T17:35:00.968Z,100377.66
2023-04-13T17:37:31.303Z,100378.78
2023-04-13T17:40:01.690Z,100385.19
2023-04-13T17:42:32.000Z,100384.88
2023-04-13T17:45:02.230Z,100383.97
2023-04-13T17:47:32.637Z,100381.66
2023-04-13T17:50:02.915Z,100388.09
2023-04-13T17:52:32.930Z,100395.97
2023-04-13T17:55:01.391Z,100393.13
2023-04-13T17:57:29.651Z,100396.88
2023-04-13T17:59:59.094Z,100401.91
2023-04-13T18:02:29.148Z,100397.44
2023-04-13T18:04:58.554Z,100413.50
2023-04-13T18:07:28.851Z,100413.16
2023-04-13T18:09:59.142Z,100408.88
2023-04-13T18:12:29.423Z,100414.59
2023-04-13T18:14:59.725Z,100420.31
2023-04-13T18:17:30.105Z,100417.50
2023-04-13T18:20:00.498Z,100429.94
2023-04-13T18:22:30.765Z,100427.66
2023-04-13T18:24:59.516Z,100437.47
2023-04-13T18:27:29.752Z,100432.50
2023-04-13T18:30:00.117Z,100442.28
2023-04-13T18:32:29.538Z,100441.41
2023-04-13T18:34:59.862Z,100443.88
2023-04-13T18:37:30.378Z,100448.88
2023-04-13T18:40:00.761Z,100449.94
2023-04-13T18:42:30.348Z,100451.03
2023-04-13T18:44:59.011Z,100452.09
2023-04-13T18:47:29.318Z,100459.94
2023-04-13T18:49:59.739Z,100455.69
2023-04-13T18:52:30.065Z,100463.53
2023-04-13T18:55:00.295Z,100463.34
2023-04-13T18:57:30.294Z,100463.19
2023-04-13T18:59:59.089Z,100469.56
2023-04-13T19:02:29.237Z,100478.84
2023-04-13T19:04:58.200Z,100476.00
2023-04-13T19:07:26.167Z,100481.16
2023-04-13T19:09:56.913Z,100479.00
2023-04-13T19:12:29.058Z,100483.47
2023-04-13T19:14:59.353Z,100482.03
2023-04-13T19:17:29.443Z,100496.66
2023-04-13T19:20:02.246Z,100499.16
2023-04-13T19:22:32.519Z,100501.63
2023-04-13T19:25:02.935Z,100504.31
2023-04-13T19:27:32.809Z,100504.09
2023-04-13T19:30:02.124Z,100518.00
2023-04-13T19:32:32.442Z,100519.94
2023-04-13T19:35:02.809Z,100521.75
2023-04-13T19:37:33.196Z,100530.47
2023-04-13T19:40:03.519Z,100532.94
2023-04-13T19:42:33.825Z,100536.84
2023-04-13T19:45:04.125Z,100545.44
2023-04-13T19:47:33.984Z,100552.72
2023-04-13T19:50:03.149Z,100555.38
2023-04-13T19:52:31.332Z,100557.84
2023-04-13T19:55:00.676Z,100556.44
2023-04-13T19:57:30.705Z,100551.81
2023-04-13T19:59:59.406Z,100559.63
2023-04-13T20:02:29.773Z,100572.09
2023-04-13T20:05:00.205Z,100581.34
2023-04-13T20:07:30.092Z,100588.13
2023-04-13T20:10:00.460Z,100590.59
2023-04-13T20:12:30.826Z,100612.69
2023-04-13T20:15:01.187Z,100621.22
2023-04-13T20:17:31.571Z,100625.13
2023-04-13T20:20:01.500Z,100627.59
2023-04-13T20:22:30.681Z,100614.09
2023-04-13T20:24:59.090Z,100601.25
2023-04-13T20:27:27.857Z,100601.97
2023-04-13T20:29:57.740Z,100592.53
2023-04-13T20:32:28.123Z,100593.78
2023-04-13T20:34:58.907Z,100587.00
2023-04-13T20:37:29.285Z,100590.94
2023-04-13T20:39:59.556Z,100588.25
2023-04-13T20:42:29.837Z,100588.75
2023-04-13T20:45:00.206Z,100589.47
2023-04-13T20:47:30.677Z,100593.41
2023-04-13T20:50:01.049Z,100593.41
2023-04-13T20:52:31.506Z,100600.00
2023-04-13T20:55:01.966Z,100602.66
2023-04-13T20:57:32.390Z,100603.91
2023-04-13T21:00:02.777Z,100608.00
2023-04-13T21:02:32.859Z,100603.19
2023-04-13T21:05:02.314Z,100604.41
2023-04-13T21:07:32.846Z,100599.78
2023-04-13T21:10:03.194Z,100600.34
2023-04-13T21:12:33.477Z,100621.69
2023-04-13T21:15:03.761Z,100622.19
2023-04-13T21:17:34.166Z,100622.19
2023-04-13T21:20:04.691Z,100610.09
2023-04-13T21:22:34.734Z,100610.09
2023-04-13T21:25:03.468Z,100619.31
2023-04-13T21:27:33.959Z,100605.09
2023-04-13T21:30:03.925Z,100605.81
2023-04-13T21:32:32.614Z,100615.06
2023-04-13T21:35:02.519Z,100611.16
2023-04-13T21:37:31.603Z,100617.72
2023-04-13T21:40:00.313Z,100613.63
2023-04-13T21:42:29.869Z,100618.28
2023-04-13T21:44:58.463Z,100627.50
2023-04-13T21:47:28.262Z,100621.44
2023-04-13T21:49:57.584Z,100622.69
2023-04-13T21:52:27.111Z,100626.78
2023-04-13T21:54:55.831Z,100622.53
2023-04-13T21:57:26.117Z,100617.91
2023-04-13T21:59:56.364Z,100620.38
2023-04-13T22:02:26.373Z,100625.00
2023-04-13T22:04:55.756Z,100628.88
2023-04-13T22:07:35.424Z,100636.00
2023-04-13T22:10:09.884Z,100633.13
2023-04-13T22:12:42.240Z,100636.34
2023-04-13T22:15:12.329Z,100634.91
2023-04-13T22:17:40.621Z,100650.94
2023-04-13T22:20:10.980Z,100645.41
2023-04-13T22:22:41.397Z,100648.09
2023-04-13T22:25:11.567Z,100646.63
2023-04-13T22:27:40.528Z,100645.22
2023-04-13T22:30:13.451Z,100649.81
2023-04-13T22:32:43.703Z,100637.03
2023-04-13T22:35:13.995Z,100642.16
2023-04-13T22:37:41.984Z,100642.16
2023-04-13T22:40:12.300Z,100640.72
2023-04-13T22:42:42.160Z,100647.50
2023-04-13T22:45:12.058Z,100641.97
2023-04-13T22:47:41.491Z,100640.53
2023-04-13T22:50:11.948Z,100640.53
2023-04-13T22:52:41.896Z,100637.88
2023-04-13T22:55:11.338Z,100637.13
2023-04-13T22:57:41.261Z,100630.94
2023-04-13T23:00:11.578Z,100633.59
2023-04-13T23:02:41.850Z,100639.44
2023-04-13T23:05:10.683Z,100638.72
2023-04-13T23:07:40.616Z,100631.22
2023-04-13T23:10:10.033Z,100639.78
2023-04-13T23:12:39.982Z,100634.44
2023-04-13T23:15:10.309Z,100632.97
2023-04-13T23:17:40.755Z,100639.56
2023-04-13T23:20:14.119Z,100642.97
2023-04-13T23:22:42.583Z,100646.13
2023-04-13T23:25:13.104Z,100639.38
2023-04-13T23:27:43.218Z,100649.34
2023-04-13T23:30:11.934Z,100645.94
2023-04-13T23:32:42.267Z,100643.28
2023-04-13T23:35:12.650Z,100640.41
2023-04-13T23:37:42.955Z,100639.00
2023-04-13T23:40:13.246Z,100641.47
2023-04-13T23:42:42.599Z,100648.22
2023-04-13T23:45:11.958Z,100638.81
2023-04-13T23:47:42.380Z,100642.03
2023-04-13T23:50:12.649Z,100643.97
2023-04-13T23:52:42.473Z,100646.41
2023-04-13T23:55:11.782Z,100646.41
2023-04-13T23:57:41.266Z,100647.63
